KAKQ/AKQ METAR and TAF weather

Enter ICAO airport designator
Station Type Date Time Source
KAKQ METAR 2020/06/02 15:54 UTC NOAA

KAKQ 021554Z AUTO 22004KT 10SM OVC080 21/15 A3012 RMK AO2 SLP201 T02060150


Station Type Date Time Source
KAKQ Decoded METAR 2020/06/02 15:54 UTC NOAA

WAKEFIELD MUNICIPAL AIRPOR, VA, United States (KAKQ) 36-59N 077-00W 33M
Jun 02, 2020 - 11:54 AM EDT / 2020.06.02 1554 UTC
Wind: from the SW (220 degrees) at 5 MPH (4 KT):0
Visibility: 10 mile(s):0
Sky conditions: overcast
Temperature: 69.1 F (20.6 C)
Dew Point: 59.0 F (15.0 C)
Relative Humidity: 70%
Pressure (altimeter): 30.12 in. Hg (1019 hPa)
ob: KAKQ 021554Z AUTO 22004KT 10SM OVC080 21/15 A3012 RMK AO2 SLP201 T02060150
cycle: 16

Station Type Date Time Source
KAKQ TAF UTC NOAA

Error!

Example: see airport list